sensor_id;sensor_type;location;lat;lon;timestamp;P1;durP1;ratioP1;P2;durP2;ratioP2
10934;SDS011;5520;45.752;4.874;2023-06-10T00:00:08;4.77;;;3.10;;
10934;SDS011;5520;45.752;4.874;2023-06-10T00:02:39;4.20;;;2.97;;
10934;SDS011;5520;45.752;4.874;2023-06-10T00:05:09;3.27;;;2.53;;
10934;SDS011;5520;45.752;4.874;2023-06-10T00:07:37;5.50;;;2.73;;
10934;SDS011;5520;45.752;4.874;2023-06-10T00:10:08;3.47;;;2.47;;
10934;SDS011;5520;45.752;4.874;2023-06-10T00:12:37;4.13;;;3.10;;
10934;SDS011;5520;45.752;4.874;2023-06-10T00:15:07;6.33;;;3.17;;
10934;SDS011;5520;45.752;4.874;2023-06-10T00:17:35;3.20;;;2.90;;
10934;SDS011;5520;45.752;4.874;2023-06-10T00:20:07;2.63;;;2.37;;
10934;SDS011;5520;45.752;4.874;2023-06-10T00:22:38;2.60;;;2.40;;
10934;SDS011;5520;45.752;4.874;2023-06-10T00:25:08;4.90;;;2.30;;
10934;SDS011;5520;45.752;4.874;2023-06-10T00:27:37;5.60;;;3.17;;
10934;SDS011;5520;45.752;4.874;2023-06-10T00:30:06;4.40;;;2.33;;
10934;SDS011;5520;45.752;4.874;2023-06-10T00:32:35;3.33;;;2.50;;
10934;SDS011;5520;45.752;4.874;2023-06-10T00:35:04;4.90;;;2.33;;
10934;SDS011;5520;45.752;4.874;2023-06-10T00:37:33;2.40;;;2.20;;
10934;SDS011;5520;45.752;4.874;2023-06-10T00:40:04;3.10;;;2.80;;
10934;SDS011;5520;45.752;4.874;2023-06-10T00:42:32;3.27;;;2.30;;
10934;SDS011;5520;45.752;4.874;2023-06-10T00:45:01;3.07;;;2.47;;
10934;SDS011;5520;45.752;4.874;2023-06-10T00:47:29;3.37;;;2.90;;
10934;SDS011;5520;45.752;4.874;2023-06-10T00:49:58;4.73;;;2.40;;
10934;SDS011;5520;45.752;4.874;2023-06-10T00:52:27;3.73;;;2.50;;
10934;SDS011;5520;45.752;4.874;2023-06-10T00:54:56;3.30;;;2.20;;
10934;SDS011;5520;45.752;4.874;2023-06-10T00:57:27;4.37;;;2.80;;
10934;SDS011;5520;45.752;4.874;2023-06-10T00:59:56;8.00;;;2.77;;
10934;SDS011;5520;45.752;4.874;2023-06-10T01:02:25;4.20;;;2.73;;
10934;SDS011;5520;45.752;4.874;2023-06-10T01:04:53;4.10;;;2.80;;
10934;SDS011;5520;45.752;4.874;2023-06-10T01:07:23;5.17;;;3.00;;
10934;SDS011;5520;45.752;4.874;2023-06-10T01:09:54;5.00;;;3.43;;
10934;SDS011;5520;45.752;4.874;2023-06-10T01:12:30;6.23;;;3.23;;
10934;SDS011;5520;45.752;4.874;2023-06-10T01:14:59;4.80;;;3.23;;
10934;SDS011;5520;45.752;4.874;2023-06-10T01:17:30;4.30;;;3.00;;
10934;SDS011;5520;45.752;4.874;2023-06-10T01:19:58;3.87;;;3.20;;
10934;SDS011;5520;45.752;4.874;2023-06-10T01:22:28;5.00;;;3.37;;
10934;SDS011;5520;45.752;4.874;2023-06-10T01:24:59;4.47;;;3.40;;
10934;SDS011;5520;45.752;4.874;2023-06-10T01:27:30;6.10;;;3.67;;
10934;SDS011;5520;45.752;4.874;2023-06-10T01:30:03;5.87;;;4.30;;
10934;SDS011;5520;45.752;4.874;2023-06-10T01:32:33;5.57;;;4.30;;
10934;SDS011;5520;45.752;4.874;2023-06-10T01:35:03;8.47;;;4.17;;
10934;SDS011;5520;45.752;4.874;2023-06-10T01:37:35;5.53;;;4.00;;
10934;SDS011;5520;45.752;4.874;2023-06-10T01:40:04;6.23;;;4.20;;
10934;SDS011;5520;45.752;4.874;2023-06-10T01:42:33;6.77;;;4.50;;
10934;SDS011;5520;45.752;4.874;2023-06-10T01:45:01;6.57;;;4.40;;
10934;SDS011;5520;45.752;4.874;2023-06-10T01:47:29;5.00;;;4.33;;
10934;SDS011;5520;45.752;4.874;2023-06-10T01:49:58;5.10;;;4.60;;
10934;SDS011;5520;45.752;4.874;2023-06-10T01:52:26;8.70;;;4.37;;
10934;SDS011;5520;45.752;4.874;2023-06-10T01:54:56;5.87;;;4.40;;
10934;SDS011;5520;45.752;4.874;2023-06-10T01:57:24;5.00;;;3.67;;
10934;SDS011;5520;45.752;4.874;2023-06-10T01:59:52;6.67;;;4.40;;
10934;SDS011;5520;45.752;4.874;2023-06-10T02:02:20;7.60;;;4.53;;
10934;SDS011;5520;45.752;4.874;2023-06-10T02:04:49;6.87;;;4.33;;
10934;SDS011;5520;45.752;4.874;2023-06-10T02:07:17;6.50;;;3.50;;
10934;SDS011;5520;45.752;4.874;2023-06-10T02:09:45;7.13;;;4.33;;
10934;SDS011;5520;45.752;4.874;2023-06-10T02:12:15;5.40;;;3.37;;
10934;SDS011;5520;45.752;4.874;2023-06-10T02:14:43;4.27;;;3.60;;
10934;SDS011;5520;45.752;4.874;2023-06-10T02:17:11;2.53;;;2.33;;
10934;SDS011;5520;45.752;4.874;2023-06-10T02:19:41;3.20;;;2.40;;
10934;SDS011;5520;45.752;4.874;2023-06-10T02:22:10;3.80;;;2.23;;
10934;SDS011;5520;45.752;4.874;2023-06-10T02:24:38;3.00;;;2.07;;
10934;SDS011;5520;45.752;4.874;2023-06-10T02:27:06;2.70;;;2.07;;
10934;SDS011;5520;45.752;4.874;2023-06-10T02:29:36;5.17;;;2.50;;
10934;SDS011;5520;45.752;4.874;2023-06-10T02:32:04;3.97;;;2.33;;
10934;SDS011;5520;45.752;4.874;2023-06-10T02:34:36;2.00;;;1.87;;
10934;SDS011;5520;45.752;4.874;2023-06-10T02:37:04;4.67;;;2.30;;
10934;SDS011;5520;45.752;4.874;2023-06-10T02:39:33;2.40;;;2.13;;
10934;SDS011;5520;45.752;4.874;2023-06-10T02:42:01;3.43;;;2.07;;
10934;SDS011;5520;45.752;4.874;2023-06-10T02:44:29;2.90;;;2.17;;
10934;SDS011;5520;45.752;4.874;2023-06-10T02:46:58;4.20;;;2.37;;
10934;SDS011;5520;45.752;4.874;2023-06-10T02:49:26;2.50;;;2.00;;
10934;SDS011;5520;45.752;4.874;2023-06-10T02:51:55;2.87;;;2.23;;
10934;SDS011;5520;45.752;4.874;2023-06-10T02:54:23;2.10;;;2.00;;
10934;SDS011;5520;45.752;4.874;2023-06-10T02:56:52;3.17;;;2.27;;
10934;SDS011;5520;45.752;4.874;2023-06-10T02:59:22;3.60;;;2.33;;
10934;SDS011;5520;45.752;4.874;2023-06-10T03:01:50;3.33;;;2.40;;
10934;SDS011;5520;45.752;4.874;2023-06-10T03:04:20;4.23;;;2.40;;
10934;SDS011;5520;45.752;4.874;2023-06-10T03:06:50;4.30;;;2.40;;
10934;SDS011;5520;45.752;4.874;2023-06-10T03:09:18;7.70;;;2.50;;
10934;SDS011;5520;45.752;4.874;2023-06-10T03:11:46;2.67;;;2.07;;
10934;SDS011;5520;45.752;4.874;2023-06-10T03:14:14;4.30;;;2.50;;
10934;SDS011;5520;45.752;4.874;2023-06-10T03:16:42;3.30;;;2.03;;
10934;SDS011;5520;45.752;4.874;2023-06-10T03:19:12;4.73;;;2.30;;
10934;SDS011;5520;45.752;4.874;2023-06-10T03:21:43;3.40;;;2.10;;
10934;SDS011;5520;45.752;4.874;2023-06-10T03:24:11;2.57;;;2.20;;
10934;SDS011;5520;45.752;4.874;2023-06-10T03:26:40;4.07;;;2.60;;
10934;SDS011;5520;45.752;4.874;2023-06-10T03:29:08;5.70;;;2.33;;
10934;SDS011;5520;45.752;4.874;2023-06-10T03:31:48;3.03;;;2.23;;
10934;SDS011;5520;45.752;4.874;2023-06-10T03:34:16;2.47;;;2.13;;
10934;SDS011;5520;45.752;4.874;2023-06-10T03:36:49;3.37;;;2.63;;
10934;SDS011;5520;45.752;4.874;2023-06-10T03:39:17;2.87;;;2.10;;
10934;SDS011;5520;45.752;4.874;2023-06-10T03:41:45;4.03;;;2.17;;
10934;SDS011;5520;45.752;4.874;2023-06-10T03:44:13;3.57;;;2.13;;
10934;SDS011;5520;45.752;4.874;2023-06-10T03:46:41;3.23;;;2.30;;
10934;SDS011;5520;45.752;4.874;2023-06-10T03:49:10;1.97;;;1.87;;
10934;SDS011;5520;45.752;4.874;2023-06-10T03:51:38;3.93;;;2.70;;
10934;SDS011;5520;45.752;4.874;2023-06-10T03:54:07;2.47;;;2.27;;
10934;SDS011;5520;45.752;4.874;2023-06-10T03:56:35;5.37;;;2.50;;
10934;SDS011;5520;45.752;4.874;2023-06-10T03:59:04;2.87;;;2.33;;
10934;SDS011;5520;45.752;4.874;2023-06-10T04:01:32;3.37;;;2.53;;
10934;SDS011;5520;45.752;4.874;2023-06-10T04:04:01;7.27;;;2.70;;
10934;SDS011;5520;45.752;4.874;2023-06-10T04:06:30;5.13;;;2.40;;
10934;SDS011;5520;45.752;4.874;2023-06-10T04:08:58;3.23;;;2.47;;
10934;SDS011;5520;45.752;4.874;2023-06-10T04:11:28;3.10;;;2.57;;
10934;SDS011;5520;45.752;4.874;2023-06-10T04:13:56;4.00;;;3.13;;
10934;SDS011;5520;45.752;4.874;2023-06-10T04:16:24;3.17;;;2.67;;
10934;SDS011;5520;45.752;4.874;2023-06-10T04:18:52;3.90;;;2.80;;
10934;SDS011;5520;45.752;4.874;2023-06-10T04:21:20;4.10;;;2.67;;
10934;SDS011;5520;45.752;4.874;2023-06-10T04:23:49;3.07;;;2.87;;
10934;SDS011;5520;45.752;4.874;2023-06-10T04:26:17;4.77;;;2.73;;
10934;SDS011;5520;45.752;4.874;2023-06-10T04:28:47;5.27;;;3.60;;
10934;SDS011;5520;45.752;4.874;2023-06-10T04:31:15;3.70;;;3.20;;
10934;SDS011;5520;45.752;4.874;2023-06-10T04:33:43;4.63;;;3.27;;
10934;SDS011;5520;45.752;4.874;2023-06-10T04:36:11;9.47;;;3.87;;
10934;SDS011;5520;45.752;4.874;2023-06-10T04:38:41;8.30;;;4.00;;
10934;SDS011;5520;45.752;4.874;2023-06-10T04:41:09;8.20;;;4.70;;
10934;SDS011;5520;45.752;4.874;2023-06-10T04:43:37;6.53;;;4.50;;
10934;SDS011;5520;45.752;4.874;2023-06-10T04:46:07;4.90;;;4.37;;
10934;SDS011;5520;45.752;4.874;2023-06-10T04:48:35;9.57;;;6.07;;
10934;SDS011;5520;45.752;4.874;2023-06-10T04:51:03;9.47;;;5.77;;
10934;SDS011;5520;45.752;4.874;2023-06-10T04:53:32;8.90;;;6.10;;
10934;SDS011;5520;45.752;4.874;2023-06-10T04:56:00;8.43;;;6.67;;
10934;SDS011;5520;45.752;4.874;2023-06-10T04:58:28;7.77;;;6.90;;
10934;SDS011;5520;45.752;4.874;2023-06-10T05:00:56;10.87;;;7.60;;
10934;SDS011;5520;45.752;4.874;2023-06-10T05:03:26;11.07;;;8.07;;
10934;SDS011;5520;45.752;4.874;2023-06-10T05:05:56;10.10;;;8.37;;
10934;SDS011;5520;45.752;4.874;2023-06-10T05:08:24;9.10;;;7.13;;
10934;SDS011;5520;45.752;4.874;2023-06-10T05:10:52;9.20;;;7.23;;
10934;SDS011;5520;45.752;4.874;2023-06-10T05:13:21;7.23;;;5.97;;
10934;SDS011;5520;45.752;4.874;2023-06-10T05:15:49;12.40;;;5.87;;
10934;SDS011;5520;45.752;4.874;2023-06-10T05:18:17;6.30;;;5.43;;
10934;SDS011;5520;45.752;4.874;2023-06-10T05:20:47;7.73;;;6.23;;
10934;SDS011;5520;45.752;4.874;2023-06-10T05:23:15;6.87;;;6.17;;
10934;SDS011;5520;45.752;4.874;2023-06-10T05:25:44;11.03;;;7.13;;
10934;SDS011;5520;45.752;4.874;2023-06-10T05:28:12;8.17;;;7.07;;
10934;SDS011;5520;45.752;4.874;2023-06-10T05:30:41;11.67;;;8.17;;
10934;SDS011;5520;45.752;4.874;2023-06-10T05:33:09;10.60;;;9.23;;
10934;SDS011;5520;45.752;4.874;2023-06-10T05:35:37;10.27;;;8.73;;
10934;SDS011;5520;45.752;4.874;2023-06-10T05:38:07;11.13;;;8.33;;
10934;SDS011;5520;45.752;4.874;2023-06-10T05:40:35;9.50;;;8.20;;
10934;SDS011;5520;45.752;4.874;2023-06-10T05:43:04;13.67;;;9.47;;
10934;SDS011;5520;45.752;4.874;2023-06-10T05:45:32;9.43;;;8.53;;
10934;SDS011;5520;45.752;4.874;2023-06-10T05:48:00;11.93;;;8.43;;
10934;SDS011;5520;45.752;4.874;2023-06-10T05:50:28;7.93;;;7.13;;
10934;SDS011;5520;45.752;4.874;2023-06-10T05:52:56;9.27;;;6.67;;
10934;SDS011;5520;45.752;4.874;2023-06-10T05:55:26;7.57;;;6.23;;
10934;SDS011;5520;45.752;4.874;2023-06-10T05:58:00;7.30;;;6.60;;
10934;SDS011;5520;45.752;4.874;2023-06-10T06:00:29;8.47;;;6.87;;
10934;SDS011;5520;45.752;4.874;2023-06-10T06:02:57;7.87;;;7.00;;
10934;SDS011;5520;45.752;4.874;2023-06-10T06:05:25;8.23;;;7.20;;
10934;SDS011;5520;45.752;4.874;2023-06-10T06:07:54;8.20;;;7.13;;
10934;SDS011;5520;45.752;4.874;2023-06-10T06:10:22;9.93;;;7.20;;
10934;SDS011;5520;45.752;4.874;2023-06-10T06:12:52;7.93;;;6.80;;
10934;SDS011;5520;45.752;4.874;2023-06-10T06:15:20;8.33;;;6.43;;
10934;SDS011;5520;45.752;4.874;2023-06-10T06:17:49;9.27;;;7.37;;
10934;SDS011;5520;45.752;4.874;2023-06-10T06:20:19;8.93;;;7.47;;
10934;SDS011;5520;45.752;4.874;2023-06-10T06:22:48;10.93;;;8.57;;
10934;SDS011;5520;45.752;4.874;2023-06-10T06:25:17;10.00;;;7.87;;
10934;SDS011;5520;45.752;4.874;2023-06-10T06:27:45;10.60;;;7.23;;
10934;SDS011;5520;45.752;4.874;2023-06-10T06:30:15;11.47;;;8.13;;
10934;SDS011;5520;45.752;4.874;2023-06-10T06:32:43;9.20;;;8.00;;
10934;SDS011;5520;45.752;4.874;2023-06-10T06:35:11;10.93;;;7.83;;
10934;SDS011;5520;45.752;4.874;2023-06-10T06:37:40;10.13;;;8.33;;
10934;SDS011;5520;45.752;4.874;2023-06-10T06:40:08;11.63;;;8.90;;
10934;SDS011;5520;45.752;4.874;2023-06-10T06:42:44;10.10;;;8.97;;
10934;SDS011;5520;45.752;4.874;2023-06-10T06:45:18;10.20;;;9.20;;
10934;SDS011;5520;45.752;4.874;2023-06-10T06:47:49;10.53;;;8.80;;
10934;SDS011;5520;45.752;4.874;2023-06-10T06:50:19;13.20;;;8.73;;
10934;SDS011;5520;45.752;4.874;2023-06-10T06:52:51;10.33;;;8.27;;
10934;SDS011;5520;45.752;4.874;2023-06-10T06:55:21;9.10;;;7.97;;
10934;SDS011;5520;45.752;4.874;2023-06-10T06:57:50;12.53;;;8.97;;
10934;SDS011;5520;45.752;4.874;2023-06-10T07:00:20;11.00;;;8.97;;
10934;SDS011;5520;45.752;4.874;2023-06-10T07:02:49;11.03;;;9.17;;
10934;SDS011;5520;45.752;4.874;2023-06-10T07:05:17;10.43;;;9.40;;
10934;SDS011;5520;45.752;4.874;2023-06-10T07:07:45;10.67;;;9.57;;
10934;SDS011;5520;45.752;4.874;2023-06-10T07:10:13;9.80;;;8.87;;
10934;SDS011;5520;45.752;4.874;2023-06-10T07:12:42;9.93;;;8.93;;
10934;SDS011;5520;45.752;4.874;2023-06-10T07:15:10;10.87;;;9.40;;
10934;SDS011;5520;45.752;4.874;2023-06-10T07:17:40;10.43;;;9.30;;
10934;SDS011;5520;45.752;4.874;2023-06-10T07:20:08;11.20;;;10.00;;
10934;SDS011;5520;45.752;4.874;2023-06-10T07:22:37;10.40;;;9.30;;
10934;SDS011;5520;45.752;4.874;2023-06-10T07:25:06;12.50;;;10.20;;
10934;SDS011;5520;45.752;4.874;2023-06-10T07:27:35;13.73;;;9.80;;
10934;SDS011;5520;45.752;4.874;2023-06-10T07:30:04;11.07;;;10.07;;
10934;SDS011;5520;45.752;4.874;2023-06-10T07:32:33;10.87;;;8.90;;
10934;SDS011;5520;45.752;4.874;2023-06-10T07:35:03;13.53;;;8.40;;
10934;SDS011;5520;45.752;4.874;2023-06-10T07:37:32;10.33;;;7.63;;
10934;SDS011;5520;45.752;4.874;2023-06-10T07:40:00;10.50;;;8.07;;
10934;SDS011;5520;45.752;4.874;2023-06-10T07:42:28;8.37;;;7.47;;
10934;SDS011;5520;45.752;4.874;2023-06-10T07:44:56;11.37;;;8.23;;
10934;SDS011;5520;45.752;4.874;2023-06-10T07:47:24;11.23;;;8.20;;
10934;SDS011;5520;45.752;4.874;2023-06-10T07:49:53;10.27;;;8.40;;
10934;SDS011;5520;45.752;4.874;2023-06-10T07:52:22;9.10;;;7.63;;
10934;SDS011;5520;45.752;4.874;2023-06-10T07:54:50;8.33;;;7.30;;
10934;SDS011;5520;45.752;4.874;2023-06-10T07:57:18;8.40;;;7.60;;
10934;SDS011;5520;45.752;4.874;2023-06-10T07:59:47;10.60;;;7.53;;
10934;SDS011;5520;45.752;4.874;2023-06-10T08:02:15;11.10;;;7.93;;
10934;SDS011;5520;45.752;4.874;2023-06-10T08:04:44;9.30;;;8.07;;
10934;SDS011;5520;45.752;4.874;2023-06-10T08:07:12;9.87;;;8.83;;
10934;SDS011;5520;45.752;4.874;2023-06-10T08:09:41;10.63;;;8.10;;
10934;SDS011;5520;45.752;4.874;2023-06-10T08:12:10;8.60;;;7.80;;
10934;SDS011;5520;45.752;4.874;2023-06-10T08:14:38;8.90;;;7.97;;
10934;SDS011;5520;45.752;4.874;2023-06-10T08:17:06;10.67;;;8.70;;
10934;SDS011;5520;45.752;4.874;2023-06-10T08:19:34;14.43;;;8.20;;
10934;SDS011;5520;45.752;4.874;2023-06-10T08:22:02;10.43;;;8.13;;
10934;SDS011;5520;45.752;4.874;2023-06-10T08:24:30;8.70;;;7.80;;
10934;SDS011;5520;45.752;4.874;2023-06-10T08:27:00;8.67;;;7.70;;
10934;SDS011;5520;45.752;4.874;2023-06-10T08:29:28;9.60;;;8.33;;
10934;SDS011;5520;45.752;4.874;2023-06-10T08:31:57;11.17;;;7.77;;
10934;SDS011;5520;45.752;4.874;2023-06-10T08:34:26;10.07;;;7.43;;
10934;SDS011;5520;45.752;4.874;2023-06-10T08:36:54;8.53;;;7.53;;
10934;SDS011;5520;45.752;4.874;2023-06-10T08:39:22;7.90;;;7.20;;
10934;SDS011;5520;45.752;4.874;2023-06-10T08:41:51;8.13;;;7.17;;
10934;SDS011;5520;45.752;4.874;2023-06-10T08:44:31;8.43;;;6.83;;
10934;SDS011;5520;45.752;4.874;2023-06-10T08:47:06;8.03;;;7.23;;
10934;SDS011;5520;45.752;4.874;2023-06-10T08:49:37;9.60;;;6.53;;
10934;SDS011;5520;45.752;4.874;2023-06-10T08:52:06;6.63;;;6.07;;
10934;SDS011;5520;45.752;4.874;2023-06-10T08:54:35;8.37;;;5.67;;
10934;SDS011;5520;45.752;4.874;2023-06-10T08:57:05;7.10;;;5.93;;
10934;SDS011;5520;45.752;4.874;2023-06-10T08:59:35;8.07;;;6.60;;
10934;SDS011;5520;45.752;4.874;2023-06-10T09:02:04;9.03;;;7.53;;
10934;SDS011;5520;45.752;4.874;2023-06-10T09:04:32;7.93;;;6.20;;
10934;SDS011;5520;45.752;4.874;2023-06-10T09:07:01;7.90;;;6.23;;
10934;SDS011;5520;45.752;4.874;2023-06-10T09:09:30;8.37;;;6.10;;
10934;SDS011;5520;45.752;4.874;2023-06-10T09:11:59;8.73;;;6.43;;
10934;SDS011;5520;45.752;4.874;2023-06-10T09:14:27;5.97;;;5.40;;
10934;SDS011;5520;45.752;4.874;2023-06-10T09:16:56;6.47;;;5.63;;
10934;SDS011;5520;45.752;4.874;2023-06-10T09:19:25;6.27;;;5.13;;
10934;SDS011;5520;45.752;4.874;2023-06-10T09:21:54;4.70;;;4.23;;
10934;SDS011;5520;45.752;4.874;2023-06-10T09:24:22;7.03;;;5.20;;
10934;SDS011;5520;45.752;4.874;2023-06-10T09:26:51;5.57;;;5.03;;
10934;SDS011;5520;45.752;4.874;2023-06-10T09:29:29;5.30;;;4.53;;
10934;SDS011;5520;45.752;4.874;2023-06-10T09:31:59;6.23;;;5.63;;
10934;SDS011;5520;45.752;4.874;2023-06-10T09:34:28;6.40;;;4.97;;
10934;SDS011;5520;45.752;4.874;2023-06-10T09:36:57;6.60;;;5.27;;
10934;SDS011;5520;45.752;4.874;2023-06-10T09:39:25;6.10;;;5.13;;
10934;SDS011;5520;45.752;4.874;2023-06-10T09:41:53;6.67;;;5.60;;
10934;SDS011;5520;45.752;4.874;2023-06-10T09:44:22;6.73;;;5.00;;
10934;SDS011;5520;45.752;4.874;2023-06-10T09:46:51;4.80;;;4.20;;
10934;SDS011;5520;45.752;4.874;2023-06-10T09:49:22;7.97;;;4.80;;
10934;SDS011;5520;45.752;4.874;2023-06-10T09:51:51;5.27;;;4.77;;
10934;SDS011;5520;45.752;4.874;2023-06-10T09:54:20;5.27;;;4.77;;
10934;SDS011;5520;45.752;4.874;2023-06-10T09:56:48;4.57;;;4.17;;
10934;SDS011;5520;45.752;4.874;2023-06-10T09:59:24;6.53;;;4.20;;
10934;SDS011;5520;45.752;4.874;2023-06-10T10:01:55;4.60;;;3.90;;
10934;SDS011;5520;45.752;4.874;2023-06-10T10:04:25;5.10;;;4.00;;
10934;SDS011;5520;45.752;4.874;2023-06-10T10:06:53;5.40;;;3.83;;
10934;SDS011;5520;45.752;4.874;2023-06-10T10:09:21;4.57;;;4.10;;
10934;SDS011;5520;45.752;4.874;2023-06-10T10:11:50;5.47;;;3.90;;
10934;SDS011;5520;45.752;4.874;2023-06-10T10:14:19;3.87;;;3.57;;
10934;SDS011;5520;45.752;4.874;2023-06-10T10:16:48;4.47;;;4.13;;
10934;SDS011;5520;45.752;4.874;2023-06-10T10:19:18;6.27;;;4.40;;
10934;SDS011;5520;45.752;4.874;2023-06-10T10:21:53;4.53;;;3.77;;
10934;SDS011;5520;45.752;4.874;2023-06-10T10:24:21;5.03;;;4.20;;
10934;SDS011;5520;45.752;4.874;2023-06-10T10:26:51;4.43;;;3.90;;
10934;SDS011;5520;45.752;4.874;2023-06-10T10:29:23;4.20;;;3.80;;
10934;SDS011;5520;45.752;4.874;2023-06-10T10:31:53;4.50;;;4.10;;
10934;SDS011;5520;45.752;4.874;2023-06-10T10:34:24;4.50;;;3.67;;
10934;SDS011;5520;45.752;4.874;2023-06-10T10:36:54;4.13;;;3.73;;
10934;SDS011;5520;45.752;4.874;2023-06-10T10:39:23;4.83;;;4.43;;
10934;SDS011;5520;45.752;4.874;2023-06-10T10:41:51;3.97;;;3.00;;
10934;SDS011;5520;45.752;4.874;2023-06-10T10:44:20;3.73;;;3.07;;
10934;SDS011;5520;45.752;4.874;2023-06-10T10:46:48;5.73;;;3.63;;
10934;SDS011;5520;45.752;4.874;2023-06-10T10:49:17;4.53;;;4.13;;
10934;SDS011;5520;45.752;4.874;2023-06-10T10:51:56;4.33;;;3.57;;
10934;SDS011;5520;45.752;4.874;2023-06-10T10:54:29;4.33;;;3.60;;
10934;SDS011;5520;45.752;4.874;2023-06-10T10:57:14;3.90;;;3.60;;
10934;SDS011;5520;45.752;4.874;2023-06-10T10:59:43;3.80;;;3.30;;
10934;SDS011;5520;45.752;4.874;2023-06-10T11:02:15;4.40;;;3.47;;
10934;SDS011;5520;45.752;4.874;2023-06-10T11:04:46;4.67;;;4.17;;
10934;SDS011;5520;45.752;4.874;2023-06-10T11:07:16;4.57;;;3.90;;
10934;SDS011;5520;45.752;4.874;2023-06-10T11:09:59;6.80;;;4.07;;
10934;SDS011;5520;45.752;4.874;2023-06-10T11:15:13;3.90;;;3.50;;
10934;SDS011;5520;45.752;4.874;2023-06-10T11:23:38;4.53;;;3.90;;
10934;SDS011;5520;45.752;4.874;2023-06-10T11:26:13;6.93;;;3.87;;
10934;SDS011;5520;45.752;4.874;2023-06-10T11:28:41;4.20;;;3.87;;
10934;SDS011;5520;45.752;4.874;2023-06-10T11:31:13;5.03;;;3.70;;
10934;SDS011;5520;45.752;4.874;2023-06-10T11:33:47;6.20;;;4.13;;
10934;SDS011;5520;45.752;4.874;2023-06-10T11:36:16;4.87;;;3.77;;
10934;SDS011;5520;45.752;4.874;2023-06-10T11:38:46;4.40;;;3.97;;
10934;SDS011;5520;45.752;4.874;2023-06-10T11:41:23;5.43;;;4.03;;
10934;SDS011;5520;45.752;4.874;2023-06-10T11:44:02;4.80;;;3.70;;
10934;SDS011;5520;45.752;4.874;2023-06-10T11:46:30;4.27;;;3.63;;
10934;SDS011;5520;45.752;4.874;2023-06-10T11:48:59;3.70;;;3.40;;
10934;SDS011;5520;45.752;4.874;2023-06-10T11:51:30;5.10;;;3.50;;
10934;SDS011;5520;45.752;4.874;2023-06-10T11:54:00;4.67;;;3.30;;
10934;SDS011;5520;45.752;4.874;2023-06-10T11:56:28;5.33;;;4.10;;
10934;SDS011;5520;45.752;4.874;2023-06-10T11:58:57;9.50;;;4.07;;
10934;SDS011;5520;45.752;4.874;2023-06-10T12:01:26;8.50;;;5.27;;
10934;SDS011;5520;45.752;4.874;2023-06-10T12:03:59;8.70;;;4.27;;
10934;SDS011;5520;45.752;4.874;2023-06-10T12:06:27;8.37;;;4.83;;
10934;SDS011;5520;45.752;4.874;2023-06-10T12:08:55;8.60;;;4.37;;
10934;SDS011;5520;45.752;4.874;2023-06-10T12:11:41;6.33;;;4.00;;
10934;SDS011;5520;45.752;4.874;2023-06-10T12:14:09;6.93;;;4.27;;
10934;SDS011;5520;45.752;4.874;2023-06-10T12:16:38;4.37;;;3.97;;
10934;SDS011;5520;45.752;4.874;2023-06-10T12:19:06;6.10;;;4.03;;
10934;SDS011;5520;45.752;4.874;2023-06-10T12:21:36;4.90;;;3.93;;
10934;SDS011;5520;45.752;4.874;2023-06-10T12:24:06;5.40;;;3.43;;
10934;SDS011;5520;45.752;4.874;2023-06-10T12:26:38;4.70;;;3.47;;
10934;SDS011;5520;45.752;4.874;2023-06-10T12:29:18;3.87;;;2.90;;
10934;SDS011;5520;45.752;4.874;2023-06-10T12:31:54;3.27;;;2.90;;
10934;SDS011;5520;45.752;4.874;2023-06-10T12:34:32;2.67;;;2.47;;
10934;SDS011;5520;45.752;4.874;2023-06-10T12:37:01;4.90;;;2.70;;
10934;SDS011;5520;45.752;4.874;2023-06-10T12:39:30;3.00;;;2.70;;
10934;SDS011;5520;45.752;4.874;2023-06-10T12:41:59;2.90;;;2.67;;
10934;SDS011;5520;45.752;4.874;2023-06-10T12:44:29;3.33;;;3.00;;
10934;SDS011;5520;45.752;4.874;2023-06-10T12:46:58;2.53;;;2.33;;
10934;SDS011;5520;45.752;4.874;2023-06-10T12:49:26;3.50;;;2.07;;
10934;SDS011;5520;45.752;4.874;2023-06-10T12:51:54;2.73;;;2.00;;
10934;SDS011;5520;45.752;4.874;2023-06-10T12:54:22;2.30;;;2.20;;
10934;SDS011;5520;45.752;4.874;2023-06-10T12:56:51;2.40;;;2.20;;
10934;SDS011;5520;45.752;4.874;2023-06-10T12:59:19;2.17;;;1.90;;
10934;SDS011;5520;45.752;4.874;2023-06-10T13:01:51;3.07;;;2.03;;
10934;SDS011;5520;45.752;4.874;2023-06-10T13:04:20;2.40;;;2.20;;
10934;SDS011;5520;45.752;4.874;2023-06-10T13:06:48;3.43;;;2.37;;
10934;SDS011;5520;45.752;4.874;2023-06-10T13:09:16;3.57;;;2.70;;
10934;SDS011;5520;45.752;4.874;2023-06-10T13:11:45;3.90;;;2.60;;
10934;SDS011;5520;45.752;4.874;2023-06-10T13:14:13;2.90;;;2.40;;
10934;SDS011;5520;45.752;4.874;2023-06-10T13:16:41;3.93;;;2.07;;
10934;SDS011;5520;45.752;4.874;2023-06-10T13:19:13;2.40;;;2.20;;
10934;SDS011;5520;45.752;4.874;2023-06-10T13:21:41;3.10;;;2.10;;
10934;SDS011;5520;45.752;4.874;2023-06-10T13:24:09;2.67;;;2.47;;
10934;SDS011;5520;45.752;4.874;2023-06-10T13:26:41;2.77;;;2.30;;
10934;SDS011;5520;45.752;4.874;2023-06-10T13:29:09;2.40;;;1.70;;
10934;SDS011;5520;45.752;4.874;2023-06-10T13:31:40;1.63;;;1.53;;
10934;SDS011;5520;45.752;4.874;2023-06-10T13:34:09;2.60;;;1.73;;
10934;SDS011;5520;45.752;4.874;2023-06-10T13:36:38;3.00;;;1.70;;
10934;SDS011;5520;45.752;4.874;2023-06-10T13:39:07;4.37;;;1.70;;
10934;SDS011;5520;45.752;4.874;2023-06-10T13:41:35;4.50;;;1.50;;
10934;SDS011;5520;45.752;4.874;2023-06-10T13:44:03;1.63;;;1.53;;
10934;SDS011;5520;45.752;4.874;2023-06-10T13:46:31;2.50;;;1.90;;
10934;SDS011;5520;45.752;4.874;2023-06-10T13:49:00;1.90;;;1.80;;
10934;SDS011;5520;45.752;4.874;2023-06-10T13:51:28;3.63;;;1.40;;
10934;SDS011;5520;45.752;4.874;2023-06-10T13:53:58;1.73;;;1.60;;
10934;SDS011;5520;45.752;4.874;2023-06-10T13:56:27;1.43;;;1.33;;
10934;SDS011;5520;45.752;4.874;2023-06-10T13:58:55;1.67;;;1.57;;
10934;SDS011;5520;45.752;4.874;2023-06-10T14:01:23;1.60;;;1.50;;
10934;SDS011;5520;45.752;4.874;2023-06-10T14:03:51;1.53;;;1.40;;
10934;SDS011;5520;45.752;4.874;2023-06-10T14:06:20;1.80;;;1.50;;
10934;SDS011;5520;45.752;4.874;2023-06-10T14:08:49;2.37;;;1.30;;
10934;SDS011;5520;45.752;4.874;2023-06-10T14:11:18;2.00;;;1.33;;
10934;SDS011;5520;45.752;4.874;2023-06-10T14:13:47;1.43;;;1.23;;
10934;SDS011;5520;45.752;4.874;2023-06-10T14:16:15;3.60;;;1.60;;
10934;SDS011;5520;45.752;4.874;2023-06-10T14:18:43;2.33;;;1.27;;
10934;SDS011;5520;45.752;4.874;2023-06-10T14:21:11;2.77;;;1.70;;
10934;SDS011;5520;45.752;4.874;2023-06-10T14:23:40;2.03;;;1.90;;
10934;SDS011;5520;45.752;4.874;2023-06-10T14:26:08;3.27;;;1.60;;
10934;SDS011;5520;45.752;4.874;2023-06-10T14:28:37;1.40;;;1.30;;
10934;SDS011;5520;45.752;4.874;2023-06-10T14:31:05;1.80;;;1.70;;
10934;SDS011;5520;45.752;4.874;2023-06-10T14:33:34;1.60;;;1.50;;
10934;SDS011;5520;45.752;4.874;2023-06-10T14:36:03;1.83;;;1.60;;
10934;SDS011;5520;45.752;4.874;2023-06-10T14:38:31;1.50;;;1.40;;
10934;SDS011;5520;45.752;4.874;2023-06-10T14:40:59;1.60;;;1.50;;
10934;SDS011;5520;45.752;4.874;2023-06-10T14:43:27;1.60;;;1.50;;
10934;SDS011;5520;45.752;4.874;2023-06-10T14:45:57;2.07;;;1.87;;
10934;SDS011;5520;45.752;4.874;2023-06-10T14:48:25;2.87;;;1.60;;
10934;SDS011;5520;45.752;4.874;2023-06-10T14:50:53;2.10;;;1.90;;
10934;SDS011;5520;45.752;4.874;2023-06-10T14:53:22;1.93;;;1.83;;
10934;SDS011;5520;45.752;4.874;2023-06-10T14:55:52;2.80;;;1.97;;
10934;SDS011;5520;45.752;4.874;2023-06-10T14:58:20;2.83;;;2.30;;
10934;SDS011;5520;45.752;4.874;2023-06-10T15:00:48;6.37;;;3.37;;
10934;SDS011;5520;45.752;4.874;2023-06-10T15:03:18;2.57;;;1.97;;
10934;SDS011;5520;45.752;4.874;2023-06-10T15:05:46;3.37;;;2.10;;
10934;SDS011;5520;45.752;4.874;2023-06-10T15:08:15;2.20;;;2.00;;
10934;SDS011;5520;45.752;4.874;2023-06-10T15:10:43;4.97;;;2.57;;
10934;SDS011;5520;45.752;4.874;2023-06-10T15:13:11;2.67;;;1.63;;
10934;SDS011;5520;45.752;4.874;2023-06-10T15:15:39;4.23;;;2.63;;
10934;SDS011;5520;45.752;4.874;2023-06-10T15:18:07;2.40;;;1.90;;
10934;SDS011;5520;45.752;4.874;2023-06-10T15:20:37;2.47;;;2.27;;